sensor_id;sensor_type;location;lat;lon;timestamp;P1;durP1;ratioP1;P2;durP2;ratioP2
20567;SDS011;10442;49.932;11.592;2023-04-19T00:02:14;9.63;;;8.73;;
20567;SDS011;10442;49.932;11.592;2023-04-19T00:04:42;9.60;;;8.75;;
20567;SDS011;10442;49.932;11.592;2023-04-19T00:07:11;10.30;;;9.25;;
20567;SDS011;10442;49.932;11.592;2023-04-19T00:09:39;10.13;;;9.13;;
20567;SDS011;10442;49.932;11.592;2023-04-19T00:12:06;8.73;;;7.93;;
20567;SDS011;10442;49.932;11.592;2023-04-19T00:14:34;9.88;;;8.90;;
20567;SDS011;10442;49.932;11.592;2023-04-19T00:17:02;10.02;;;9.13;;
20567;SDS011;10442;49.932;11.592;2023-04-19T00:19:30;9.00;;;8.10;;
20567;SDS011;10442;49.932;11.592;2023-04-19T00:21:57;9.60;;;8.70;;
20567;SDS011;10442;49.932;11.592;2023-04-19T00:24:25;10.00;;;9.10;;
20567;SDS011;10442;49.932;11.592;2023-04-19T00:26:52;8.90;;;8.07;;
20567;SDS011;10442;49.932;11.592;2023-04-19T00:29:20;10.68;;;9.73;;
20567;SDS011;10442;49.932;11.592;2023-04-19T00:31:47;9.90;;;8.90;;
20567;SDS011;10442;49.932;11.592;2023-04-19T00:34:15;10.85;;;9.75;;
20567;SDS011;10442;49.932;11.592;2023-04-19T00:36:42;9.52;;;8.68;;
20567;SDS011;10442;49.932;11.592;2023-04-19T00:39:11;11.23;;;9.48;;
20567;SDS011;10442;49.932;11.592;2023-04-19T00:41:39;11.40;;;10.27;;
20567;SDS011;10442;49.932;11.592;2023-04-19T00:44:07;9.90;;;9.00;;
20567;SDS011;10442;49.932;11.592;2023-04-19T00:46:35;9.00;;;8.25;;
20567;SDS011;10442;49.932;11.592;2023-04-19T00:49:03;12.60;;;10.52;;
20567;SDS011;10442;49.932;11.592;2023-04-19T00:51:32;8.90;;;8.07;;
20567;SDS011;10442;49.932;11.592;2023-04-19T00:54:01;10.88;;;9.88;;
20567;SDS011;10442;49.932;11.592;2023-04-19T00:56:29;11.30;;;10.18;;
20567;SDS011;10442;49.932;11.592;2023-04-19T00:58:57;11.43;;;10.05;;
20567;SDS011;10442;49.932;11.592;2023-04-19T01:01:25;10.38;;;9.25;;
20567;SDS011;10442;49.932;11.592;2023-04-19T01:03:52;10.50;;;9.50;;
20567;SDS011;10442;49.932;11.592;2023-04-19T01:06:20;11.70;;;10.50;;
20567;SDS011;10442;49.932;11.592;2023-04-19T01:08:48;10.90;;;9.88;;
20567;SDS011;10442;49.932;11.592;2023-04-19T01:11:15;11.52;;;10.05;;
20567;SDS011;10442;49.932;11.592;2023-04-19T01:13:44;9.93;;;9.02;;
20567;SDS011;10442;49.932;11.592;2023-04-19T01:16:11;10.95;;;9.93;;
20567;SDS011;10442;49.932;11.592;2023-04-19T01:18:39;11.15;;;10.05;;
20567;SDS011;10442;49.932;11.592;2023-04-19T01:21:07;10.80;;;9.80;;
20567;SDS011;10442;49.932;11.592;2023-04-19T01:23:35;11.35;;;10.32;;
20567;SDS011;10442;49.932;11.592;2023-04-19T01:26:04;10.98;;;9.88;;
20567;SDS011;10442;49.932;11.592;2023-04-19T01:28:32;11.32;;;10.25;;
20567;SDS011;10442;49.932;11.592;2023-04-19T01:30:59;11.38;;;10.13;;
20567;SDS011;10442;49.932;11.592;2023-04-19T01:33:27;11.68;;;10.48;;
20567;SDS011;10442;49.932;11.592;2023-04-19T01:35:54;10.02;;;9.02;;
20567;SDS011;10442;49.932;11.592;2023-04-19T01:38:22;10.43;;;9.57;;
20567;SDS011;10442;49.932;11.592;2023-04-19T01:40:49;10.02;;;9.18;;
20567;SDS011;10442;49.932;11.592;2023-04-19T01:43:16;9.95;;;8.95;;
20567;SDS011;10442;49.932;11.592;2023-04-19T01:45:44;10.60;;;9.50;;
20567;SDS011;10442;49.932;11.592;2023-04-19T01:48:12;10.20;;;9.20;;
20567;SDS011;10442;49.932;11.592;2023-04-19T01:50:39;10.85;;;9.82;;
20567;SDS011;10442;49.932;11.592;2023-04-19T01:53:06;9.75;;;8.85;;
20567;SDS011;10442;49.932;11.592;2023-04-19T01:55:34;10.93;;;9.85;;
20567;SDS011;10442;49.932;11.592;2023-04-19T01:58:01;10.25;;;9.25;;
20567;SDS011;10442;49.932;11.592;2023-04-19T02:00:28;10.88;;;9.88;;
20567;SDS011;10442;49.932;11.592;2023-04-19T02:02:56;12.23;;;10.95;;
20567;SDS011;10442;49.932;11.592;2023-04-19T02:05:23;9.25;;;8.35;;
20567;SDS011;10442;49.932;11.592;2023-04-19T02:07:52;10.95;;;9.70;;
20567;SDS011;10442;49.932;11.592;2023-04-19T02:10:20;10.90;;;9.85;;
20567;SDS011;10442;49.932;11.592;2023-04-19T02:12:47;10.63;;;9.55;;
20567;SDS011;10442;49.932;11.592;2023-04-19T02:15:14;9.40;;;8.57;;
20567;SDS011;10442;49.932;11.592;2023-04-19T02:17:42;9.90;;;9.00;;
20567;SDS011;10442;49.932;11.592;2023-04-19T02:20:09;9.35;;;8.65;;
20567;SDS011;10442;49.932;11.592;2023-04-19T02:22:37;9.77;;;8.93;;
20567;SDS011;10442;49.932;11.592;2023-04-19T02:25:04;9.82;;;8.82;;
20567;SDS011;10442;49.932;11.592;2023-04-19T02:27:32;9.55;;;8.65;;
20567;SDS011;10442;49.932;11.592;2023-04-19T02:30:00;9.75;;;8.85;;
20567;SDS011;10442;49.932;11.592;2023-04-19T02:32:29;9.82;;;8.88;;
20567;SDS011;10442;49.932;11.592;2023-04-19T02:34:57;8.48;;;7.70;;
20567;SDS011;10442;49.932;11.592;2023-04-19T02:37:25;8.35;;;7.63;;
20567;SDS011;10442;49.932;11.592;2023-04-19T02:39:56;10.07;;;9.20;;
20567;SDS011;10442;49.932;11.592;2023-04-19T02:42:23;7.85;;;7.15;;
20567;SDS011;10442;49.932;11.592;2023-04-19T02:44:52;9.55;;;8.65;;
20567;SDS011;10442;49.932;11.592;2023-04-19T02:47:23;9.88;;;8.98;;
20567;SDS011;10442;49.932;11.592;2023-04-19T02:49:51;8.95;;;8.25;;
20567;SDS011;10442;49.932;11.592;2023-04-19T02:52:19;9.82;;;9.02;;
20567;SDS011;10442;49.932;11.592;2023-04-19T02:54:46;9.65;;;8.30;;
20567;SDS011;10442;49.932;11.592;2023-04-19T02:57:14;9.65;;;8.65;;
20567;SDS011;10442;49.932;11.592;2023-04-19T02:59:43;8.07;;;7.40;;
20567;SDS011;10442;49.932;11.592;2023-04-19T03:02:10;7.82;;;7.18;;
20567;SDS011;10442;49.932;11.592;2023-04-19T03:04:38;8.70;;;7.90;;
20567;SDS011;10442;49.932;11.592;2023-04-19T03:07:06;9.45;;;8.40;;
20567;SDS011;10442;49.932;11.592;2023-04-19T03:09:34;7.38;;;6.78;;
20567;SDS011;10442;49.932;11.592;2023-04-19T03:12:03;7.97;;;7.38;;
20567;SDS011;10442;49.932;11.592;2023-04-19T03:14:31;8.75;;;7.85;;
20567;SDS011;10442;49.932;11.592;2023-04-19T03:17:00;8.63;;;7.85;;
20567;SDS011;10442;49.932;11.592;2023-04-19T03:19:28;8.57;;;7.85;;
20567;SDS011;10442;49.932;11.592;2023-04-19T03:21:55;10.13;;;9.32;;
20567;SDS011;10442;49.932;11.592;2023-04-19T03:24:26;10.70;;;9.77;;
20567;SDS011;10442;49.932;11.592;2023-04-19T03:26:56;10.10;;;9.30;;
20567;SDS011;10442;49.932;11.592;2023-04-19T03:29:27;10.18;;;9.27;;
20567;SDS011;10442;49.932;11.592;2023-04-19T03:32:05;11.63;;;10.57;;
20567;SDS011;10442;49.932;11.592;2023-04-19T03:34:33;10.25;;;9.35;;
20567;SDS011;10442;49.932;11.592;2023-04-19T03:37:00;9.25;;;8.48;;
20567;SDS011;10442;49.932;11.592;2023-04-19T03:39:29;10.90;;;9.88;;
20567;SDS011;10442;49.932;11.592;2023-04-19T03:42:01;12.52;;;11.43;;
20567;SDS011;10442;49.932;11.592;2023-04-19T03:45:04;12.27;;;11.07;;
20567;SDS011;10442;49.932;11.592;2023-04-19T03:47:37;14.27;;;12.85;;
20567;SDS011;10442;49.932;11.592;2023-04-19T03:50:05;14.77;;;13.55;;
20567;SDS011;10442;49.932;11.592;2023-04-19T03:52:34;16.48;;;14.88;;
20567;SDS011;10442;49.932;11.592;2023-04-19T03:55:02;18.52;;;16.80;;
20567;SDS011;10442;49.932;11.592;2023-04-19T03:57:36;16.20;;;14.77;;
20567;SDS011;10442;49.932;11.592;2023-04-19T04:00:12;16.90;;;15.40;;
20567;SDS011;10442;49.932;11.592;2023-04-19T04:02:39;18.27;;;16.42;;
20567;SDS011;10442;49.932;11.592;2023-04-19T04:05:07;16.35;;;14.85;;
20567;SDS011;10442;49.932;11.592;2023-04-19T04:07:36;18.75;;;17.05;;
20567;SDS011;10442;49.932;11.592;2023-04-19T04:10:04;18.60;;;16.95;;
20567;SDS011;10442;49.932;11.592;2023-04-19T04:12:37;18.58;;;16.80;;
20567;SDS011;10442;49.932;11.592;2023-04-19T04:15:06;21.88;;;18.88;;
20567;SDS011;10442;49.932;11.592;2023-04-19T04:17:37;19.63;;;17.60;;
20567;SDS011;10442;49.932;11.592;2023-04-19T04:20:05;16.98;;;15.57;;
20567;SDS011;10442;49.932;11.592;2023-04-19T04:22:35;17.98;;;16.25;;
20567;SDS011;10442;49.932;11.592;2023-04-19T04:25:08;19.88;;;18.05;;
20567;SDS011;10442;49.932;11.592;2023-04-19T04:27:37;19.27;;;17.30;;
20567;SDS011;10442;49.932;11.592;2023-04-19T04:30:10;18.75;;;17.05;;
20567;SDS011;10442;49.932;11.592;2023-04-19T04:32:38;20.48;;;18.50;;
20567;SDS011;10442;49.932;11.592;2023-04-19T04:35:08;20.50;;;18.58;;
20567;SDS011;10442;49.932;11.592;2023-04-19T04:37:50;20.55;;;18.70;;
20567;SDS011;10442;49.932;11.592;2023-04-19T04:40:20;20.35;;;18.33;;
20567;SDS011;10442;49.932;11.592;2023-04-19T04:42:47;21.75;;;19.55;;
20567;SDS011;10442;49.932;11.592;2023-04-19T04:45:15;20.33;;;18.45;;
20567;SDS011;10442;49.932;11.592;2023-04-19T04:47:44;20.23;;;18.25;;
20567;SDS011;10442;49.932;11.592;2023-04-19T04:50:15;21.25;;;19.20;;
20567;SDS011;10442;49.932;11.592;2023-04-19T04:52:43;19.30;;;17.27;;
20567;SDS011;10442;49.932;11.592;2023-04-19T04:55:31;21.17;;;18.70;;
20567;SDS011;10442;49.932;11.592;2023-04-19T04:57:58;20.70;;;18.73;;
20567;SDS011;10442;49.932;11.592;2023-04-19T05:00:40;20.52;;;18.05;;
20567;SDS011;10442;49.932;11.592;2023-04-19T05:03:09;18.33;;;16.42;;
20567;SDS011;10442;49.932;11.592;2023-04-19T05:05:46;17.92;;;16.30;;
20567;SDS011;10442;49.932;11.592;2023-04-19T05:08:13;19.52;;;16.75;;
20567;SDS011;10442;49.932;11.592;2023-04-19T05:10:41;19.20;;;17.17;;
20567;SDS011;10442;49.932;11.592;2023-04-19T05:13:13;19.40;;;16.02;;
20567;SDS011;10442;49.932;11.592;2023-04-19T05:15:40;16.58;;;14.88;;
20567;SDS011;10442;49.932;11.592;2023-04-19T05:18:08;16.90;;;15.18;;
20567;SDS011;10442;49.932;11.592;2023-04-19T05:20:36;15.68;;;14.18;;
20567;SDS011;10442;49.932;11.592;2023-04-19T05:23:12;15.80;;;14.20;;
20567;SDS011;10442;49.932;11.592;2023-04-19T05:25:40;16.02;;;14.35;;
20567;SDS011;10442;49.932;11.592;2023-04-19T05:28:08;14.60;;;13.10;;
20567;SDS011;10442;49.932;11.592;2023-04-19T05:31:01;14.10;;;12.75;;
20567;SDS011;10442;49.932;11.592;2023-04-19T05:33:33;15.95;;;14.38;;
20567;SDS011;10442;49.932;11.592;2023-04-19T05:36:01;18.05;;;16.20;;
20567;SDS011;10442;49.932;11.592;2023-04-19T05:38:28;15.05;;;13.57;;
20567;SDS011;10442;49.932;11.592;2023-04-19T05:40:58;17.60;;;16.00;;
20567;SDS011;10442;49.932;11.592;2023-04-19T05:43:26;16.90;;;15.20;;
20567;SDS011;10442;49.932;11.592;2023-04-19T05:45:54;18.75;;;16.90;;
20567;SDS011;10442;49.932;11.592;2023-04-19T05:48:21;19.50;;;16.80;;
20567;SDS011;10442;49.932;11.592;2023-04-19T05:51:10;18.80;;;15.57;;
20567;SDS011;10442;49.932;11.592;2023-04-19T05:54:00;17.17;;;15.38;;
20567;SDS011;10442;49.932;11.592;2023-04-19T05:56:29;18.48;;;16.60;;
20567;SDS011;10442;49.932;11.592;2023-04-19T05:58:56;19.88;;;17.92;;
20567;SDS011;10442;49.932;11.592;2023-04-19T06:01:25;19.83;;;16.42;;
20567;SDS011;10442;49.932;11.592;2023-04-19T06:03:54;17.85;;;15.02;;
20567;SDS011;10442;49.932;11.592;2023-04-19T06:06:23;18.13;;;16.23;;
20567;SDS011;10442;49.932;11.592;2023-04-19T06:08:51;16.55;;;14.95;;
20567;SDS011;10442;49.932;11.592;2023-04-19T06:11:20;17.88;;;16.23;;
20567;SDS011;10442;49.932;11.592;2023-04-19T06:14:04;22.10;;;14.85;;
20567;SDS011;10442;49.932;11.592;2023-04-19T06:16:32;15.32;;;13.82;;
20567;SDS011;10442;49.932;11.592;2023-04-19T06:18:59;14.80;;;13.25;;
20567;SDS011;10442;49.932;11.592;2023-04-19T06:21:29;18.30;;;15.05;;
20567;SDS011;10442;49.932;11.592;2023-04-19T06:23:57;17.60;;;15.77;;
20567;SDS011;10442;49.932;11.592;2023-04-19T06:26:25;20.75;;;18.60;;
20567;SDS011;10442;49.932;11.592;2023-04-19T06:28:52;16.05;;;14.27;;
20567;SDS011;10442;49.932;11.592;2023-04-19T06:31:20;14.82;;;13.05;;
20567;SDS011;10442;49.932;11.592;2023-04-19T06:33:48;15.60;;;14.10;;
20567;SDS011;10442;49.932;11.592;2023-04-19T06:36:15;15.27;;;13.70;;
20567;SDS011;10442;49.932;11.592;2023-04-19T06:38:43;15.98;;;13.82;;
20567;SDS011;10442;49.932;11.592;2023-04-19T06:41:12;15.02;;;13.50;;
20567;SDS011;10442;49.932;11.592;2023-04-19T06:43:39;13.48;;;12.18;;
20567;SDS011;10442;49.932;11.592;2023-04-19T06:46:09;15.75;;;14.23;;
20567;SDS011;10442;49.932;11.592;2023-04-19T06:48:37;15.80;;;14.30;;
20567;SDS011;10442;49.932;11.592;2023-04-19T06:51:04;15.13;;;13.63;;
20567;SDS011;10442;49.932;11.592;2023-04-19T06:53:32;14.82;;;13.25;;
20567;SDS011;10442;49.932;11.592;2023-04-19T06:56:00;16.77;;;14.65;;
20567;SDS011;10442;49.932;11.592;2023-04-19T06:58:29;15.88;;;13.82;;
20567;SDS011;10442;49.932;11.592;2023-04-19T07:01:01;15.80;;;14.20;;
20567;SDS011;10442;49.932;11.592;2023-04-19T07:03:30;19.88;;;17.40;;
20567;SDS011;10442;49.932;11.592;2023-04-19T07:05:59;18.00;;;15.63;;
20567;SDS011;10442;49.932;11.592;2023-04-19T07:08:27;19.10;;;15.07;;
20567;SDS011;10442;49.932;11.592;2023-04-19T07:11:14;20.17;;;15.10;;
20567;SDS011;10442;49.932;11.592;2023-04-19T07:13:41;21.77;;;15.90;;
20567;SDS011;10442;49.932;11.592;2023-04-19T07:16:09;18.52;;;16.33;;
20567;SDS011;10442;49.932;11.592;2023-04-19T07:18:37;17.38;;;15.68;;
20567;SDS011;10442;49.932;11.592;2023-04-19T07:21:04;17.25;;;15.52;;
20567;SDS011;10442;49.932;11.592;2023-04-19T07:23:32;17.95;;;14.27;;
20567;SDS011;10442;49.932;11.592;2023-04-19T07:25:59;16.65;;;15.07;;
20567;SDS011;10442;49.932;11.592;2023-04-19T07:28:27;17.27;;;15.55;;
20567;SDS011;10442;49.932;11.592;2023-04-19T07:30:55;17.85;;;16.15;;
20567;SDS011;10442;49.932;11.592;2023-04-19T07:33:23;18.33;;;16.63;;
20567;SDS011;10442;49.932;11.592;2023-04-19T07:35:54;19.67;;;17.83;;
20567;SDS011;10442;49.932;11.592;2023-04-19T07:38:22;21.40;;;19.17;;
20567;SDS011;10442;49.932;11.592;2023-04-19T07:40:51;18.58;;;16.95;;
20567;SDS011;10442;49.932;11.592;2023-04-19T07:43:18;17.33;;;15.73;;
20567;SDS011;10442;49.932;11.592;2023-04-19T07:45:46;18.63;;;16.63;;
20567;SDS011;10442;49.932;11.592;2023-04-19T07:48:14;18.60;;;16.58;;
20567;SDS011;10442;49.932;11.592;2023-04-19T07:50:41;18.77;;;16.20;;
20567;SDS011;10442;49.932;11.592;2023-04-19T07:53:09;18.27;;;16.33;;
20567;SDS011;10442;49.932;11.592;2023-04-19T07:55:37;16.60;;;14.95;;
20567;SDS011;10442;49.932;11.592;2023-04-19T07:58:05;15.88;;;14.27;;
20567;SDS011;10442;49.932;11.592;2023-04-19T08:00:32;14.98;;;13.52;;
20567;SDS011;10442;49.932;11.592;2023-04-19T08:03:03;13.55;;;12.20;;
20567;SDS011;10442;49.932;11.592;2023-04-19T08:05:31;13.20;;;11.65;;
20567;SDS011;10442;49.932;11.592;2023-04-19T08:08:00;13.13;;;11.80;;
20567;SDS011;10442;49.932;11.592;2023-04-19T08:10:29;15.38;;;11.55;;
20567;SDS011;10442;49.932;11.592;2023-04-19T08:12:56;13.13;;;11.77;;
20567;SDS011;10442;49.932;11.592;2023-04-19T08:15:32;10.98;;;9.90;;
20567;SDS011;10442;49.932;11.592;2023-04-19T08:18:03;11.23;;;10.13;;
20567;SDS011;10442;49.932;11.592;2023-04-19T08:20:31;12.25;;;9.27;;
20567;SDS011;10442;49.932;11.592;2023-04-19T08:22:59;9.40;;;7.88;;
20567;SDS011;10442;49.932;11.592;2023-04-19T08:25:40;9.30;;;8.43;;
20567;SDS011;10442;49.932;11.592;2023-04-19T08:28:08;9.80;;;8.90;;
20567;SDS011;10442;49.932;11.592;2023-04-19T08:30:35;11.55;;;9.85;;
20567;SDS011;10442;49.932;11.592;2023-04-19T08:33:03;10.80;;;9.70;;
20567;SDS011;10442;49.932;11.592;2023-04-19T08:35:30;15.20;;;13.75;;
20567;SDS011;10442;49.932;11.592;2023-04-19T08:38:00;10.98;;;9.73;;
20567;SDS011;10442;49.932;11.592;2023-04-19T08:40:30;11.65;;;10.48;;
20567;SDS011;10442;49.932;11.592;2023-04-19T08:42:57;11.75;;;10.45;;
20567;SDS011;10442;49.932;11.592;2023-04-19T08:45:28;10.77;;;9.68;;
20567;SDS011;10442;49.932;11.592;2023-04-19T08:47:57;10.35;;;9.32;;
20567;SDS011;10442;49.932;11.592;2023-04-19T08:50:29;11.60;;;9.23;;
20567;SDS011;10442;49.932;11.592;2023-04-19T08:53:09;9.93;;;9.02;;
20567;SDS011;10442;49.932;11.592;2023-04-19T08:55:40;11.05;;;10.00;;
20567;SDS011;10442;49.932;11.592;2023-04-19T08:58:29;11.38;;;9.50;;
20567;SDS011;10442;49.932;11.592;2023-04-19T09:01:05;9.70;;;8.80;;
20567;SDS011;10442;49.932;11.592;2023-04-19T09:03:44;9.23;;;7.93;;
20567;SDS011;10442;49.932;11.592;2023-04-19T09:06:28;11.43;;;9.10;;
20567;SDS011;10442;49.932;11.592;2023-04-19T09:09:17;10.80;;;9.80;;
20567;SDS011;10442;49.932;11.592;2023-04-19T09:11:52;11.27;;;10.18;;
20567;SDS011;10442;49.932;11.592;2023-04-19T09:14:20;9.82;;;8.85;;
20567;SDS011;10442;49.932;11.592;2023-04-19T09:16:48;9.68;;;8.85;;
20567;SDS011;10442;49.932;11.592;2023-04-19T09:19:18;8.98;;;8.18;;
20567;SDS011;10442;49.932;11.592;2023-04-19T09:21:51;15.13;;;9.13;;
20567;SDS011;10442;49.932;11.592;2023-04-19T09:24:35;10.20;;;8.50;;
20567;SDS011;10442;49.932;11.592;2023-04-19T09:27:31;7.88;;;7.10;;
20567;SDS011;10442;49.932;11.592;2023-04-19T09:30:01;9.90;;;7.80;;
20567;SDS011;10442;49.932;11.592;2023-04-19T09:32:43;7.35;;;6.53;;
20567;SDS011;10442;49.932;11.592;2023-04-19T09:35:12;7.15;;;6.45;;
20567;SDS011;10442;49.932;11.592;2023-04-19T09:37:41;6.75;;;6.18;;
20567;SDS011;10442;49.932;11.592;2023-04-19T09:40:22;6.05;;;5.28;;
20567;SDS011;10442;49.932;11.592;2023-04-19T09:42:50;6.35;;;5.85;;
20567;SDS011;10442;49.932;11.592;2023-04-19T09:45:22;6.65;;;5.50;;
20567;SDS011;10442;49.932;11.592;2023-04-19T09:48:00;5.65;;;5.15;;
20567;SDS011;10442;49.932;11.592;2023-04-19T09:50:29;5.38;;;4.22;;
20567;SDS011;10442;49.932;11.592;2023-04-19T09:52:59;5.40;;;4.90;;
20567;SDS011;10442;49.932;11.592;2023-04-19T09:55:27;4.68;;;4.05;;
20567;SDS011;10442;49.932;11.592;2023-04-19T09:58:10;4.20;;;3.65;;
20567;SDS011;10442;49.932;11.592;2023-04-19T10:00:40;7.15;;;4.38;;
20567;SDS011;10442;49.932;11.592;2023-04-19T10:03:17;4.05;;;3.75;;
20567;SDS011;10442;49.932;11.592;2023-04-19T10:05:48;4.25;;;3.88;;
20567;SDS011;10442;49.932;11.592;2023-04-19T10:08:16;5.28;;;3.90;;
20567;SDS011;10442;49.932;11.592;2023-04-19T10:10:44;3.40;;;3.08;;
20567;SDS011;10442;49.932;11.592;2023-04-19T10:13:16;4.57;;;3.83;;
20567;SDS011;10442;49.932;11.592;2023-04-19T10:15:48;4.45;;;4.13;;
20567;SDS011;10442;49.932;11.592;2023-04-19T10:18:25;7.43;;;3.42;;
20567;SDS011;10442;49.932;11.592;2023-04-19T10:20:54;3.92;;;3.63;;
20567;SDS011;10442;49.932;11.592;2023-04-19T10:23:29;5.47;;;3.35;;
20567;SDS011;10442;49.932;11.592;2023-04-19T10:25:58;3.28;;;2.85;;
20567;SDS011;10442;49.932;11.592;2023-04-19T10:28:29;3.97;;;2.88;;
20567;SDS011;10442;49.932;11.592;2023-04-19T10:33:25;2.63;;;2.40;;
20567;SDS011;10442;49.932;11.592;2023-04-19T10:35:54;3.10;;;2.80;;
20567;SDS011;10442;49.932;11.592;2023-04-19T10:38:37;3.70;;;3.40;;
20567;SDS011;10442;49.932;11.592;2023-04-19T10:41:15;5.45;;;3.35;;
20567;SDS011;10442;49.932;11.592;2023-04-19T10:43:46;3.25;;;2.90;;
20567;SDS011;10442;49.932;11.592;2023-04-19T10:46:35;3.28;;;2.90;;
20567;SDS011;10442;49.932;11.592;2023-04-19T10:49:05;3.35;;;3.08;;
20567;SDS011;10442;49.932;11.592;2023-04-19T10:51:35;5.80;;;2.95;;
20567;SDS011;10442;49.932;11.592;2023-04-19T10:54:05;3.08;;;2.83;;
20567;SDS011;10442;49.932;11.592;2023-04-19T10:57:05;2.83;;;2.60;;
20567;SDS011;10442;49.932;11.592;2023-04-19T10:59:37;3.78;;;2.60;;
20567;SDS011;10442;49.932;11.592;2023-04-19T11:04:59;2.40;;;2.25;;
20567;SDS011;10442;49.932;11.592;2023-04-19T11:07:27;2.72;;;2.55;;
20567;SDS011;10442;49.932;11.592;2023-04-19T11:10:03;2.55;;;1.92;;
20567;SDS011;10442;49.932;11.592;2023-04-19T11:12:32;3.63;;;1.63;;
20567;SDS011;10442;49.932;11.592;2023-04-19T11:15:00;7.68;;;3.47;;
20567;SDS011;10442;49.932;11.592;2023-04-19T11:17:29;3.03;;;2.67;;
20567;SDS011;10442;49.932;11.592;2023-04-19T11:20:02;2.67;;;1.83;;
20567;SDS011;10442;49.932;11.592;2023-04-19T11:22:35;2.17;;;1.90;;
20567;SDS011;10442;49.932;11.592;2023-04-19T11:27:48;2.17;;;1.98;;
20567;SDS011;10442;49.932;11.592;2023-04-19T11:30:18;4.03;;;2.10;;
20567;SDS011;10442;49.932;11.592;2023-04-19T11:32:50;2.20;;;1.95;;
20567;SDS011;10442;49.932;11.592;2023-04-19T11:35:20;2.95;;;1.90;;
20567;SDS011;10442;49.932;11.592;2023-04-19T11:37:49;3.17;;;2.58;;
20567;SDS011;10442;49.932;11.592;2023-04-19T11:40:20;3.20;;;2.80;;
20567;SDS011;10442;49.932;11.592;2023-04-19T11:42:59;2.33;;;2.08;;
20567;SDS011;10442;49.932;11.592;2023-04-19T11:45:29;3.15;;;2.45;;
20567;SDS011;10442;49.932;11.592;2023-04-19T11:48:03;5.15;;;3.35;;
20567;SDS011;10442;49.932;11.592;2023-04-19T11:53:10;3.25;;;2.40;;
20567;SDS011;10442;49.932;11.592;2023-04-19T11:55:48;4.72;;;2.60;;
20567;SDS011;10442;49.932;11.592;2023-04-19T12:01:05;7.35;;;3.22;;
20567;SDS011;10442;49.932;11.592;2023-04-19T12:03:54;5.18;;;2.50;;
20567;SDS011;10442;49.932;11.592;2023-04-19T12:06:27;3.85;;;3.05;;
20567;SDS011;10442;49.932;11.592;2023-04-19T12:08:59;2.85;;;2.63;;
20567;SDS011;10442;49.932;11.592;2023-04-19T12:11:40;5.50;;;3.17;;
20567;SDS011;10442;49.932;11.592;2023-04-19T12:14:13;3.67;;;3.08;;
20567;SDS011;10442;49.932;11.592;2023-04-19T12:16:42;4.88;;;2.50;;
20567;SDS011;10442;49.932;11.592;2023-04-19T12:19:15;6.30;;;2.95;;
20567;SDS011;10442;49.932;11.592;2023-04-19T12:21:45;4.03;;;3.00;;
20567;SDS011;10442;49.932;11.592;2023-04-19T12:24:13;6.28;;;3.78;;
20567;SDS011;10442;49.932;11.592;2023-04-19T12:26:52;3.17;;;2.92;;
20567;SDS011;10442;49.932;11.592;2023-04-19T12:29:29;3.55;;;3.22;;
20567;SDS011;10442;49.932;11.592;2023-04-19T12:31:56;7.68;;;3.33;;
20567;SDS011;10442;49.932;11.592;2023-04-19T12:34:24;3.40;;;3.10;;
20567;SDS011;10442;49.932;11.592;2023-04-19T12:36:52;4.07;;;2.95;;
20567;SDS011;10442;49.932;11.592;2023-04-19T12:39:19;5.10;;;2.78;;
20567;SDS011;10442;49.932;11.592;2023-04-19T12:41:48;3.90;;;3.03;;
20567;SDS011;10442;49.932;11.592;2023-04-19T12:44:15;3.72;;;2.60;;
20567;SDS011;10442;49.932;11.592;2023-04-19T12:46:43;3.38;;;2.83;;
20567;SDS011;10442;49.932;11.592;2023-04-19T12:49:10;4.03;;;2.83;;
20567;SDS011;10442;49.932;11.592;2023-04-19T12:51:38;2.80;;;2.60;;
20567;SDS011;10442;49.932;11.592;2023-04-19T12:54:05;3.58;;;2.45;;
20567;SDS011;10442;49.932;11.592;2023-04-19T12:56:33;3.40;;;2.85;;
20567;SDS011;10442;49.932;11.592;2023-04-19T12:59:01;4.43;;;2.67;;
20567;SDS011;10442;49.932;11.592;2023-04-19T13:01:29;3.70;;;2.90;;
20567;SDS011;10442;49.932;11.592;2023-04-19T13:03:58;2.65;;;2.40;;
20567;SDS011;10442;49.932;11.592;2023-04-19T13:06:26;2.85;;;2.65;;
20567;SDS011;10442;49.932;11.592;2023-04-19T13:08:53;3.78;;;2.55;;
20567;SDS011;10442;49.932;11.592;2023-04-19T13:11:25;3.55;;;3.03;;
20567;SDS011;10442;49.932;11.592;2023-04-19T13:13:53;2.83;;;2.63;;
20567;SDS011;10442;49.932;11.592;2023-04-19T13:16:20;3.08;;;2.88;;
20567;SDS011;10442;49.932;11.592;2023-04-19T13:18:48;3.83;;;3.50;;
20567;SDS011;10442;49.932;11.592;2023-04-19T13:21:18;3.92;;;2.95;;
20567;SDS011;10442;49.932;11.592;2023-04-19T13:23:46;2.95;;;2.75;;
20567;SDS011;10442;49.932;11.592;2023-04-19T13:26:14;4.10;;;2.75;;
20567;SDS011;10442;49.932;11.592;2023-04-19T13:28:42;2.92;;;2.65;;
20567;SDS011;10442;49.932;11.592;2023-04-19T13:31:10;5.13;;;2.92;;
20567;SDS011;10442;49.932;11.592;2023-04-19T13:33:37;2.67;;;2.40;;
20567;SDS011;10442;49.932;11.592;2023-04-19T13:36:05;2.65;;;2.45;;
20567;SDS011;10442;49.932;11.592;2023-04-19T13:38:33;2.85;;;2.65;;
20567;SDS011;10442;49.932;11.592;2023-04-19T13:41:01;3.58;;;1.80;;
20567;SDS011;10442;49.932;11.592;2023-04-19T13:43:29;3.10;;;2.80;;
20567;SDS011;10442;49.932;11.592;2023-04-19T13:45:57;2.97;;;2.42;;
20567;SDS011;10442;49.932;11.592;2023-04-19T13:48:24;2.55;;;2.35;;
20567;SDS011;10442;49.932;11.592;2023-04-19T13:50:55;2.83;;;2.58;;
20567;SDS011;10442;49.932;11.592;2023-04-19T13:53:23;3.33;;;2.30;;
20567;SDS011;10442;49.932;11.592;2023-04-19T13:55:52;2.75;;;2.53;;
20567;SDS011;10442;49.932;11.592;2023-04-19T13:58:21;3.97;;;2.83;;
20567;SDS011;10442;49.932;11.592;2023-04-19T14:00:50;3.83;;;2.53;;
20567;SDS011;10442;49.932;11.592;2023-04-19T14:03:20;6.10;;;2.92;;
20567;SDS011;10442;49.932;11.592;2023-04-19T14:05:49;3.20;;;2.90;;
20567;SDS011;10442;49.932;11.592;2023-04-19T14:08:17;3.38;;;2.72;;
20567;SDS011;10442;49.932;11.592;2023-04-19T14:10:44;2.58;;;2.38;;
20567;SDS011;10442;49.932;11.592;2023-04-19T14:13:12;4.57;;;2.88;;
20567;SDS011;10442;49.932;11.592;2023-04-19T14:15:39;2.63;;;2.42;;
20567;SDS011;10442;49.932;11.592;2023-04-19T14:18:07;3.58;;;3.28;;
20567;SDS011;10442;49.932;11.592;2023-04-19T14:20:34;3.22;;;2.80;;
20567;SDS011;10442;49.932;11.592;2023-04-19T14:23:02;2.63;;;1.80;;
20567;SDS011;10442;49.932;11.592;2023-04-19T14:25:30;2.70;;;2.50;;
20567;SDS011;10442;49.932;11.592;2023-04-19T14:27:57;3.88;;;2.50;;
20567;SDS011;10442;49.932;11.592;2023-04-19T14:30:25;2.40;;;2.20;;
20567;SDS011;10442;49.932;11.592;2023-04-19T14:32:53;4.60;;;2.63;;
20567;SDS011;10442;49.932;11.592;2023-04-19T14:35:21;3.55;;;3.13;;
20567;SDS011;10442;49.932;11.592;2023-04-19T14:37:49;5.35;;;3.35;;
20567;SDS011;10442;49.932;11.592;2023-04-19T14:40:16;3.78;;;2.78;;
20567;SDS011;10442;49.932;11.592;2023-04-19T14:42:45;3.03;;;2.83;;
20567;SDS011;10442;49.932;11.592;2023-04-19T14:45:13;3.50;;;2.67;;
20567;SDS011;10442;49.932;11.592;2023-04-19T14:47:41;5.50;;;3.03;;
20567;SDS011;10442;49.932;11.592;2023-04-19T14:50:09;5.40;;;3.25;;
20567;SDS011;10442;49.932;11.592;2023-04-19T14:52:36;4.55;;;3.22;;
20567;SDS011;10442;49.932;11.592;2023-04-19T14:55:04;3.90;;;3.25;;